Etusivu
METAR-TAF:

METAR-TAF

Lentoasemat :

Maun, Botswana

Leveyspiiri: 19-59S, Pituuspiiri: 023-25E, korkeus merenpinnasta: 945 m

Tämänhetkinen sää

Tämä raportti tehtiin 1 tunti ja 37 minuuttia sitten, kello 05.00 UTC
Tuuli 8 kn kaakosta
Lämpötila 9°C
Kosteus 43%
Ilmanpaine 1026 hPa
Näkyvyys 10 km tai enemmän
ei pilviä alle 1500 m:ssä eikä cumulonimbus-pilviä

METAR: FBMN 140500Z 14008KT CAVOK 09/M03 Q1026

Aika: 08:37 (06:37 UTC)

Sääennuste

Tämä raportti tehtiin 2 tuntia ja 37 minuuttia sitten, kello 04.00 UTC
Ennuste voimassa 14. päivästä klo 06 UTC - 15. päivään klo 06 UTC
Tuuli 7 kn idästä/kaakosta
Näkyvyys 10 km tai enemmän
ei pilviä alle 1500 m:ssä eikä cumulonimbus-pilviä

TAF: FBMN 140400Z 1406/1506 12007KT CAVOK

Säähavainnot ja -ennusteet yli 4000 lentoasemalta (METAR- ja TAF-raportit).

Käytössä olevat sääasemat on merkitty karttaan keltaisilla ja punaisilla pisteillä.

Aseta hiiri pisteen päälle nähdäksesi sääaseman nimen.

Klikkaa sitten nähdäksesi säähavainnot ja -ennusteet.

Kartan vaihtaminen: klikkaa mustalla rastilla varustettuja vihreitä pisteitä, niin voit zoomata sisään; viivalla varustettua vihreää pistettä, niin voit zoomata ulos tai vihreitä nuolia, niin pääset viereisille kartoille.


METAR-TAF: